createdAt,value
2022-09-26T00:01:12.195Z,18.47
2022-09-26T00:03:39.627Z,18.47
2022-09-26T00:06:08.572Z,18.47
2022-09-26T00:08:37.308Z,18.45
2022-09-26T00:11:07.548Z,18.38
2022-09-26T00:13:36.799Z,18.41
2022-09-26T00:16:04.398Z,18.38
2022-09-26T00:18:31.178Z,18.39
2022-09-26T00:21:09.043Z,18.42
2022-09-26T00:23:36.101Z,18.30
2022-09-26T00:26:03.963Z,18.29
2022-09-26T00:28:30.918Z,18.24
2022-09-26T00:30:57.668Z,18.21
2022-09-26T00:33:24.397Z,18.20
2022-09-26T00:35:52.218Z,18.17
2022-09-26T00:38:19.309Z,18.13
2022-09-26T00:40:47.238Z,18.12
2022-09-26T00:43:33.538Z,18.11
2022-09-26T00:46:40.799Z,18.06
2022-09-26T00:49:21.741Z,18.04
2022-09-26T00:51:58.791Z,18.05
2022-09-26T00:54:28.298Z,18.05
2022-09-26T00:56:58.576Z,18.04
2022-09-26T00:59:39.115Z,18.03
2022-09-26T01:02:06.029Z,18.09
2022-09-26T01:04:38.146Z,18.17
2022-09-26T01:07:10.609Z,18.25
2022-09-26T01:09:39.327Z,18.21
2022-09-26T01:12:08.565Z,18.09
2022-09-26T01:14:37.664Z,18.00
2022-09-26T01:17:05.305Z,17.95
2022-09-26T01:20:08.055Z,17.90
2022-09-26T01:22:43.704Z,17.91
2022-09-26T01:25:38.635Z,17.89
2022-09-26T01:28:31.460Z,17.87
2022-09-26T01:31:40.207Z,17.80
2022-09-26T01:34:32.019Z,17.72
2022-09-26T01:37:23.603Z,17.71
2022-09-26T01:40:02.687Z,17.74
2022-09-26T01:43:00.067Z,17.77
2022-09-26T01:45:36.076Z,17.78
2022-09-26T01:48:17.136Z,17.79
2022-09-26T01:50:50.271Z,17.71
2022-09-26T01:53:42.793Z,17.75
2022-09-26T01:56:15.303Z,17.78
2022-09-26T01:58:47.693Z,17.71
2022-09-26T02:01:15.658Z,17.74
2022-09-26T02:03:58.851Z,17.74
2022-09-26T02:07:04.517Z,17.72
2022-09-26T02:09:37.789Z,17.61
2022-09-26T02:12:08.937Z,17.55
2022-09-26T02:14:41.860Z,17.57
2022-09-26T02:17:13.057Z,17.56
2022-09-26T02:19:59.046Z,17.53
2022-09-26T02:22:34.361Z,17.43
2022-09-26T02:25:02.799Z,17.43
2022-09-26T02:27:29.607Z,17.40
2022-09-26T02:29:57.610Z,17.48
2022-09-26T02:32:29.247Z,17.59
2022-09-26T02:34:56.850Z,17.65
2022-09-26T02:37:25.479Z,17.62
2022-09-26T02:39:53.472Z,17.48
2022-09-26T02:42:24.619Z,17.41
2022-09-26T02:44:57.046Z,17.40
2022-09-26T02:47:44.868Z,17.38
2022-09-26T02:50:25.510Z,17.30
2022-09-26T02:53:29.828Z,17.29
2022-09-26T02:56:06.307Z,17.29
2022-09-26T02:58:51.180Z,17.30
2022-09-26T03:01:31.466Z,17.27
2022-09-26T03:04:14.904Z,17.29
2022-09-26T03:06:45.326Z,17.29
2022-09-26T03:09:13.193Z,17.21
2022-09-26T03:11:41.965Z,17.22
2022-09-26T03:14:09.992Z,17.22
2022-09-26T03:16:42.299Z,17.32
2022-09-26T03:19:11.953Z,17.23
2022-09-26T03:21:38.551Z,17.24
2022-09-26T03:24:05.304Z,17.27
2022-09-26T03:26:33.229Z,17.29
2022-09-26T03:29:00.084Z,17.33
2022-09-26T03:31:27.282Z,17.33
2022-09-26T03:33:54.047Z,17.30
2022-09-26T03:36:24.250Z,17.23
2022-09-26T03:38:50.851Z,17.22
2022-09-26T03:41:17.402Z,17.22
2022-09-26T03:43:44.055Z,17.19
2022-09-26T03:46:12.312Z,17.20
2022-09-26T03:48:39.479Z,17.19
2022-09-26T03:51:09.297Z,17.24
2022-09-26T03:53:38.417Z,17.24
2022-09-26T03:56:07.446Z,17.15
2022-09-26T03:58:34.561Z,17.18
2022-09-26T04:01:05.799Z,17.19
2022-09-26T04:03:34.102Z,17.14
2022-09-26T04:06:00.881Z,17.14
2022-09-26T04:08:27.956Z,17.18
2022-09-26T04:11:01.306Z,17.16
2022-09-26T04:13:50.009Z,17.14
2022-09-26T04:16:14.442Z,17.09
2022-09-26T04:18:41.119Z,17.08
2022-09-26T04:21:10.281Z,17.08
2022-09-26T04:23:39.798Z,17.01
2022-09-26T04:26:13.298Z,16.98
2022-09-26T04:28:40.934Z,16.96
2022-09-26T04:31:10.579Z,17.03
2022-09-26T04:33:39.251Z,17.09
2022-09-26T04:36:09.243Z,17.11
2022-09-26T04:38:36.132Z,16.98
2022-09-26T04:41:08.263Z,17.02
2022-09-26T04:43:35.343Z,17.00
2022-09-26T04:46:06.139Z,17.00
2022-09-26T04:48:32.821Z,17.05
2022-09-26T04:50:59.455Z,17.01
2022-09-26T04:53:26.524Z,17.07
2022-09-26T04:55:54.368Z,17.05
2022-09-26T04:58:21.598Z,17.07
2022-09-26T05:00:49.705Z,17.10
2022-09-26T05:03:17.414Z,17.12
2022-09-26T05:05:47.267Z,17.08
2022-09-26T05:08:17.280Z,17.09
2022-09-26T05:10:44.333Z,17.12
2022-09-26T05:13:11.008Z,17.14
2022-09-26T05:15:39.998Z,17.12
2022-09-26T05:18:08.463Z,17.07
2022-09-26T05:20:35.923Z,17.08
2022-09-26T05:23:03.710Z,17.12
2022-09-26T05:25:55.514Z,17.08
2022-09-26T05:28:22.347Z,17.05
2022-09-26T05:30:50.365Z,17.04
2022-09-26T05:33:19.909Z,17.09
2022-09-26T05:35:56.328Z,17.03
2022-09-26T05:38:22.961Z,17.02
2022-09-26T05:40:56.499Z,17.06
2022-09-26T05:43:29.013Z,17.07
2022-09-26T05:46:04.146Z,17.02
2022-09-26T05:48:32.449Z,17.19
2022-09-26T05:51:13.669Z,17.20
2022-09-26T05:53:41.760Z,17.15
2022-09-26T05:56:09.521Z,17.19
2022-09-26T05:58:38.298Z,17.21
2022-09-26T06:01:16.836Z,17.26
2022-09-26T06:03:45.083Z,17.23
2022-09-26T06:06:14.174Z,17.28
2022-09-26T06:08:41.438Z,17.36
2022-09-26T06:11:16.596Z,17.34
2022-09-26T06:13:45.815Z,17.39
2022-09-26T06:16:16.719Z,17.32
2022-09-26T06:18:43.280Z,17.30
2022-09-26T06:21:11.642Z,17.30
2022-09-26T06:23:38.479Z,17.30
2022-09-26T06:26:08.401Z,17.35
2022-09-26T06:28:39.013Z,17.41
2022-09-26T06:31:15.198Z,17.41
2022-09-26T06:33:41.810Z,17.43
2022-09-26T06:36:11.071Z,17.44
2022-09-26T06:38:38.415Z,17.48
2022-09-26T06:41:07.413Z,17.46
2022-09-26T06:43:34.250Z,17.46
2022-09-26T06:46:01.065Z,17.49
2022-09-26T06:48:27.762Z,17.52
2022-09-26T06:50:57.113Z,17.56
2022-09-26T06:53:24.017Z,17.62
2022-09-26T06:55:50.691Z,17.58
2022-09-26T06:58:17.788Z,17.67
2022-09-26T07:00:44.727Z,17.66
2022-09-26T07:03:13.524Z,17.64
2022-09-26T07:05:40.085Z,17.64
2022-09-26T07:08:07.064Z,17.64
2022-09-26T07:10:37.653Z,17.69
2022-09-26T07:13:09.498Z,17.75
2022-09-26T07:15:37.141Z,17.80
2022-09-26T07:18:06.537Z,17.88
2022-09-26T07:20:36.598Z,17.89
2022-09-26T07:23:05.403Z,17.88
2022-09-26T07:25:33.434Z,17.91
2022-09-26T07:28:00.980Z,18.05
2022-09-26T07:30:28.392Z,18.00
2022-09-26T07:33:03.148Z,18.07
2022-09-26T07:35:31.282Z,18.06
2022-09-26T07:37:59.480Z,18.08
2022-09-26T07:40:27.393Z,18.11
2022-09-26T07:43:15.693Z,18.17
2022-09-26T07:46:03.864Z,18.23
2022-09-26T07:48:48.907Z,18.18
2022-09-26T07:51:16.270Z,18.20
2022-09-26T07:53:42.869Z,18.24
2022-09-26T07:56:12.810Z,18.26
2022-09-26T07:58:45.658Z,18.26
2022-09-26T08:01:14.640Z,18.32
2022-09-26T08:03:43.226Z,18.36
2022-09-26T08:06:12.377Z,18.46
2022-09-26T08:08:41.476Z,18.50
2022-09-26T08:11:16.393Z,18.49
2022-09-26T08:13:43.724Z,18.54
2022-09-26T08:16:11.740Z,18.65
2022-09-26T08:18:39.867Z,18.66
2022-09-26T08:21:07.120Z,18.59
2022-09-26T08:23:34.258Z,18.60
2022-09-26T08:26:06.862Z,18.67
2022-09-26T08:28:35.564Z,18.73
2022-09-26T08:31:05.051Z,18.76
2022-09-26T08:33:37.192Z,18.83
2022-09-26T08:36:16.041Z,18.77
2022-09-26T08:38:42.873Z,18.80
2022-09-26T08:41:32.865Z,18.75
2022-09-26T08:44:24.134Z,18.77
2022-09-26T08:47:17.923Z,18.81
2022-09-26T08:50:22.149Z,18.92
2022-09-26T08:53:05.734Z,19.03
2022-09-26T08:55:41.861Z,19.11
2022-09-26T08:58:17.374Z,19.18
2022-09-26T09:00:44.729Z,19.19
2022-09-26T09:03:31.099Z,19.19
2022-09-26T09:06:05.810Z,19.26
2022-09-26T09:08:44.370Z,19.38
2022-09-26T09:11:42.105Z,19.47
2022-09-26T09:14:14.928Z,19.55
2022-09-26T09:16:51.545Z,19.66
2022-09-26T09:20:00.991Z,19.71
2022-09-26T09:23:01.313Z,19.82
2022-09-26T09:25:35.483Z,20.05
2022-09-26T09:28:39.911Z,20.27
2022-09-26T09:31:12.414Z,20.32
2022-09-26T09:33:44.154Z,20.29
2022-09-26T09:36:17.441Z,20.44
2022-09-26T09:38:46.984Z,20.54
2022-09-26T09:41:19.271Z,20.54
2022-09-26T09:43:48.930Z,20.48
2022-09-26T09:46:25.147Z,20.68
2022-09-26T09:49:00.281Z,20.94
2022-09-26T09:51:42.066Z,20.92
2022-09-26T09:54:27.413Z,20.98
2022-09-26T09:57:36.645Z,21.17
2022-09-26T10:00:16.275Z,21.21
2022-09-26T10:02:56.605Z,21.20
2022-09-26T10:05:25.394Z,21.37
2022-09-26T10:07:58.460Z,21.43
2022-09-26T10:10:39.757Z,21.39
2022-09-26T10:13:11.140Z,21.52
2022-09-26T10:16:05.660Z,21.68
2022-09-26T10:18:33.748Z,21.89
2022-09-26T10:21:16.227Z,22.02
2022-09-26T10:23:46.931Z,22.06
2022-09-26T10:26:13.989Z,22.13
2022-09-26T10:28:58.017Z,22.11
2022-09-26T10:31:31.475Z,22.08
2022-09-26T10:34:06.215Z,21.96
2022-09-26T10:36:36.850Z,22.04
2022-09-26T10:39:40.032Z,22.16
2022-09-26T10:42:15.906Z,22.08
2022-09-26T10:44:43.176Z,22.34
2022-09-26T10:47:16.838Z,22.45
2022-09-26T10:49:59.083Z,22.35
2022-09-26T10:52:40.089Z,22.51
2022-09-26T10:55:13.135Z,22.71
2022-09-26T10:57:45.695Z,22.86
2022-09-26T11:00:36.778Z,23.27
2022-09-26T11:03:05.928Z,23.58
2022-09-26T11:05:56.631Z,23.69
2022-09-26T11:08:35.007Z,23.92
2022-09-26T11:11:04.823Z,23.96
2022-09-26T11:14:08.421Z,24.05
2022-09-26T11:16:50.971Z,24.19
2022-09-26T11:19:29.850Z,24.20
2022-09-26T11:22:20.093Z,24.35
2022-09-26T11:24:54.888Z,24.56
2022-09-26T11:27:34.514Z,24.62
2022-09-26T11:30:09.316Z,24.40
2022-09-26T11:32:41.018Z,24.82
2022-09-26T11:35:29.609Z,24.91
2022-09-26T11:38:08.426Z,25.09
2022-09-26T11:40:47.223Z,24.99
2022-09-26T11:43:35.875Z,24.81
2022-09-26T11:46:34.668Z,25.09
2022-09-26T11:49:38.394Z,25.25
2022-09-26T11:52:13.089Z,25.17
2022-09-26T11:54:58.517Z,24.75
2022-09-26T11:57:34.849Z,24.53
2022-09-26T12:00:07.361Z,24.44
2022-09-26T12:02:47.399Z,24.24
2022-09-26T12:05:38.097Z,24.08
2022-09-26T12:08:07.662Z,23.82
2022-09-26T12:10:47.016Z,23.76
2022-09-26T12:13:22.622Z,23.68
2022-09-26T12:16:02.559Z,23.56
2022-09-26T12:18:43.580Z,23.48
2022-09-26T12:21:31.960Z,23.56
2022-09-26T12:24:27.353Z,23.41
2022-09-26T12:27:03.068Z,23.35
2022-09-26T12:29:53.832Z,23.10
2022-09-26T12:32:38.783Z,23.07
2022-09-26T12:35:29.182Z,23.02
2022-09-26T12:38:17.702Z,22.90
2022-09-26T12:41:14.415Z,23.05
2022-09-26T12:44:03.227Z,23.10
2022-09-26T12:46:51.910Z,23.15
2022-09-26T12:49:27.823Z,23.10
2022-09-26T12:52:16.307Z,22.99
2022-09-26T12:54:54.888Z,22.94
2022-09-26T12:57:36.036Z,22.92
2022-09-26T13:00:11.734Z,22.90
2022-09-26T13:02:51.187Z,22.89
2022-09-26T13:05:30.617Z,22.84
2022-09-26T13:08:46.143Z,22.83
2022-09-26T13:11:34.141Z,22.88
2022-09-26T13:14:06.190Z,22.84
2022-09-26T13:16:41.040Z,22.77
2022-09-26T13:19:21.860Z,22.81
2022-09-26T13:21:54.761Z,22.83
2022-09-26T13:24:34.621Z,22.78
2022-09-26T13:27:13.936Z,22.88
2022-09-26T13:29:46.272Z,22.84
2022-09-26T13:32:26.824Z,22.84
2022-09-26T13:35:00.888Z,22.83
2022-09-26T13:37:42.602Z,22.87
2022-09-26T13:40:37.985Z,22.87
2022-09-26T13:43:33.527Z,22.78
2022-09-26T13:46:27.171Z,22.78
2022-09-26T13:49:18.830Z,22.73
2022-09-26T13:51:58.282Z,22.79
2022-09-26T13:54:46.955Z,22.74
2022-09-26T13:57:35.191Z,22.79
2022-09-26T14:00:30.258Z,22.82
2022-09-26T14:03:19.563Z,22.70
2022-09-26T14:05:49.966Z,22.65
2022-09-26T14:08:44.653Z,22.70
2022-09-26T14:11:24.568Z,22.66
2022-09-26T14:14:19.422Z,22.67
2022-09-26T14:16:57.546Z,22.71
2022-09-26T14:19:33.172Z,22.67
2022-09-26T14:22:05.435Z,22.51
2022-09-26T14:24:41.820Z,22.66
2022-09-26T14:27:11.584Z,22.71
2022-09-26T14:29:38.216Z,22.77
2022-09-26T14:32:08.772Z,22.79
2022-09-26T14:34:35.434Z,22.80
2022-09-26T14:37:05.475Z,22.83
2022-09-26T14:39:38.959Z,22.89
2022-09-26T14:42:18.867Z,22.86
2022-09-26T14:44:57.803Z,22.86
2022-09-26T14:47:27.962Z,22.79
2022-09-26T14:50:13.971Z,22.83
2022-09-26T14:52:51.348Z,22.78
2022-09-26T14:55:19.304Z,22.89
2022-09-26T14:57:51.697Z,22.79
2022-09-26T15:00:43.084Z,22.72
2022-09-26T15:03:16.555Z,22.77
2022-09-26T15:05:44.757Z,22.68
2022-09-26T15:08:25.527Z,22.74
2022-09-26T15:10:56.010Z,22.72
2022-09-26T15:13:25.363Z,22.69
2022-09-26T15:16:09.963Z,22.66
2022-09-26T15:18:57.310Z,22.65
2022-09-26T15:21:41.023Z,22.63
2022-09-26T15:24:37.907Z,22.51
2022-09-26T15:27:20.426Z,22.55
2022-09-26T15:29:54.774Z,22.56
2022-09-26T15:32:32.457Z,22.53
2022-09-26T15:35:01.857Z,22.49
2022-09-26T15:37:34.941Z,22.48
2022-09-26T15:40:13.660Z,22.49
2022-09-26T15:42:58.405Z,22.45
2022-09-26T15:45:33.775Z,22.50
2022-09-26T15:48:27.898Z,22.51
2022-09-26T15:51:25.602Z,22.48
2022-09-26T15:54:09.360Z,22.44
2022-09-26T15:56:46.228Z,22.43
2022-09-26T15:59:31.644Z,22.43
2022-09-26T16:01:59.886Z,22.48
2022-09-26T16:04:29.399Z,22.57
2022-09-26T16:07:03.407Z,22.71
2022-09-26T16:09:32.284Z,22.69
2022-09-26T16:12:09.335Z,22.60
2022-09-26T16:15:05.099Z,22.63
2022-09-26T16:17:38.617Z,22.50
2022-09-26T16:20:29.930Z,22.59
2022-09-26T16:23:03.309Z,22.55
2022-09-26T16:25:52.798Z,22.55
2022-09-26T16:28:23.060Z,22.47
2022-09-26T16:30:58.681Z,22.54
2022-09-26T16:33:27.611Z,22.43
2022-09-26T16:35:54.654Z,22.36
2022-09-26T16:38:34.093Z,22.43
2022-09-26T16:41:48.871Z,22.31
2022-09-26T16:44:41.097Z,22.21
2022-09-26T16:47:30.501Z,22.22
2022-09-26T16:49:57.479Z,22.28
2022-09-26T16:52:32.841Z,22.22
2022-09-26T16:55:01.644Z,22.13
2022-09-26T16:57:35.348Z,22.06
2022-09-26T17:02:52.767Z,22.12
2022-09-26T17:05:22.829Z,22.12
2022-09-26T17:07:51.229Z,22.12
2022-09-26T17:10:21.115Z,22.00
2022-09-26T17:12:51.329Z,21.83
2022-09-26T17:15:23.887Z,21.69
2022-09-26T17:17:53.629Z,21.63
2022-09-26T17:20:23.939Z,21.46
2022-09-26T17:22:51.197Z,21.55
2022-09-26T17:25:18.799Z,21.48
2022-09-26T17:27:49.277Z,21.50
2022-09-26T17:30:19.146Z,21.50
2022-09-26T17:32:51.152Z,21.41
2022-09-26T17:35:25.860Z,21.38
2022-09-26T17:37:53.245Z,21.31
2022-09-26T17:40:24.322Z,21.23
2022-09-26T17:42:55.533Z,21.24
2022-09-26T17:45:28.631Z,21.39
2022-09-26T17:48:05.281Z,21.46
2022-09-26T17:50:33.481Z,21.38
2022-09-26T17:53:02.256Z,21.24
2022-09-26T17:55:31.008Z,21.28
2022-09-26T17:57:58.533Z,21.25
2022-09-26T18:00:27.096Z,21.19
2022-09-26T18:03:01.303Z,21.09
2022-09-26T18:05:34.486Z,20.92
2022-09-26T18:08:07.947Z,20.89
2022-09-26T18:10:35.581Z,20.84
2022-09-26T18:13:13.189Z,20.88
2022-09-26T18:15:40.302Z,20.86
2022-09-26T18:18:16.978Z,20.96
2022-09-26T18:20:45.463Z,21.05
2022-09-26T18:23:49.850Z,20.90
2022-09-26T18:26:30.800Z,20.76
2022-09-26T18:28:59.126Z,20.68
2022-09-26T18:31:31.595Z,20.70
2022-09-26T18:33:59.732Z,20.76
2022-09-26T18:36:29.679Z,20.77
2022-09-26T18:38:56.490Z,20.75
2022-09-26T18:41:26.541Z,20.79
2022-09-26T18:43:55.784Z,20.84
2022-09-26T18:46:25.415Z,20.77
2022-09-26T18:48:58.353Z,20.85
2022-09-26T18:51:26.654Z,20.82
2022-09-26T18:53:53.725Z,20.79
2022-09-26T18:56:38.951Z,20.69
2022-09-26T18:59:05.702Z,20.61
2022-09-26T19:01:35.361Z,20.60
2022-09-26T19:04:05.805Z,20.70
2022-09-26T19:06:37.353Z,20.84
2022-09-26T19:09:21.548Z,20.80
2022-09-26T19:11:48.651Z,20.66
2022-09-26T19:14:17.265Z,20.68
2022-09-26T19:16:45.567Z,20.58
2022-09-26T19:19:13.066Z,20.60
2022-09-26T19:21:42.885Z,20.60
2022-09-26T19:24:27.037Z,20.55
2022-09-26T19:26:57.458Z,20.47
2022-09-26T19:29:32.700Z,20.43
2022-09-26T19:32:00.087Z,20.42
2022-09-26T19:34:32.350Z,20.36
2022-09-26T19:37:03.234Z,20.42
2022-09-26T19:39:30.346Z,20.42
2022-09-26T19:41:57.097Z,20.35
2022-09-26T19:44:24.481Z,20.40
2022-09-26T19:46:51.546Z,20.35
2022-09-26T19:49:19.871Z,20.38
2022-09-26T19:51:47.294Z,20.31
2022-09-26T19:54:17.715Z,20.29
2022-09-26T19:56:45.792Z,20.23
2022-09-26T19:59:14.436Z,20.44
2022-09-26T20:01:42.974Z,20.37
2022-09-26T20:04:19.555Z,20.56
2022-09-26T20:06:47.749Z,20.52
2022-09-26T20:09:17.836Z,20.59
2022-09-26T20:11:45.203Z,20.50
2022-09-26T20:14:23.914Z,20.44
2022-09-26T20:16:52.224Z,20.40
2022-09-26T20:19:25.989Z,20.32
2022-09-26T20:21:53.209Z,20.25
2022-09-26T20:24:20.131Z,20.17
2022-09-26T20:26:48.176Z,20.23
2022-09-26T20:29:16.519Z,20.24
2022-09-26T20:31:43.711Z,20.21
2022-09-26T20:34:11.657Z,20.23
2022-09-26T20:36:42.164Z,20.18
2022-09-26T20:39:15.638Z,20.17
2022-09-26T20:41:43.937Z,20.27
2022-09-26T20:44:18.503Z,20.19
2022-09-26T20:46:54.033Z,20.22
2022-09-26T20:49:46.153Z,20.27
2022-09-26T20:52:20.848Z,20.18
2022-09-26T20:54:47.920Z,20.23
2022-09-26T20:57:19.757Z,20.20
2022-09-26T20:59:47.310Z,20.17
2022-09-26T21:02:26.425Z,20.18
2022-09-26T21:04:54.001Z,20.16
2022-09-26T21:07:22.686Z,20.19
2022-09-26T21:09:50.515Z,20.17
2022-09-26T21:12:18.522Z,20.30
2022-09-26T21:14:46.680Z,20.23
2022-09-26T21:17:28.712Z,20.32
2022-09-26T21:19:56.797Z,20.36
2022-09-26T21:22:26.829Z,20.24
2022-09-26T21:24:54.602Z,20.31
2022-09-26T21:27:21.363Z,20.34
2022-09-26T21:29:48.110Z,20.28
2022-09-26T21:32:19.525Z,20.17
2022-09-26T21:35:00.563Z,20.16
2022-09-26T21:37:27.559Z,20.25
2022-09-26T21:39:54.547Z,20.12
2022-09-26T21:42:23.073Z,20.11
2022-09-26T21:45:00.321Z,20.08
2022-09-26T21:47:28.097Z,20.08
2022-09-26T21:49:54.896Z,20.15
2022-09-26T21:52:46.511Z,20.12
2022-09-26T21:55:20.377Z,20.10
2022-09-26T21:57:49.232Z,20.23
2022-09-26T22:00:16.291Z,20.32
2022-09-26T22:02:43.034Z,20.33
2022-09-26T22:05:11.783Z,20.26
2022-09-26T22:07:39.021Z,20.20
2022-09-26T22:10:06.839Z,20.11
2022-09-26T22:12:34.351Z,20.07
2022-09-26T22:15:01.452Z,20.07
2022-09-26T22:17:28.159Z,20.06
2022-09-26T22:19:54.962Z,20.06
2022-09-26T22:22:21.708Z,20.04
2022-09-26T22:24:48.486Z,19.92
2022-09-26T22:27:15.288Z,19.85
2022-09-26T22:29:42.052Z,19.85
2022-09-26T22:32:09.066Z,19.93
2022-09-26T22:34:35.751Z,19.88
2022-09-26T22:37:02.486Z,19.76
2022-09-26T22:39:29.161Z,19.69
2022-09-26T22:41:55.830Z,19.63
2022-09-26T22:44:22.507Z,19.74
2022-09-26T22:46:49.224Z,19.73
2022-09-26T22:49:16.656Z,19.62
2022-09-26T22:51:43.299Z,19.52
2022-09-26T22:54:10.062Z,19.49
2022-09-26T22:56:36.775Z,19.61
2022-09-26T22:59:04.040Z,19.52
2022-09-26T23:01:30.834Z,19.66
2022-09-26T23:03:58.468Z,19.62
2022-09-26T23:06:25.474Z,19.58
2022-09-26T23:08:52.423Z,19.51
2022-09-26T23:11:20.144Z,19.62
2022-09-26T23:13:47.098Z,19.53
2022-09-26T23:16:17.319Z,19.55
2022-09-26T23:18:44.921Z,19.67
2022-09-26T23:21:20.496Z,19.62
2022-09-26T23:23:49.966Z,19.51
2022-09-26T23:26:23.415Z,19.44
2022-09-26T23:28:51.551Z,19.40
2022-09-26T23:31:18.657Z,19.31
2022-09-26T23:33:45.520Z,19.22
2022-09-26T23:36:12.492Z,19.15
2022-09-26T23:38:40.480Z,19.12
2022-09-26T23:41:09.850Z,19.06
2022-09-26T23:43:36.818Z,19.03
2022-09-26T23:46:04.320Z,19.05
2022-09-26T23:48:31.175Z,19.08
2022-09-26T23:50:58.289Z,19.03
2022-09-26T23:53:25.317Z,19.08
2022-09-26T23:55:52.279Z,19.05
2022-09-26T23:58:19.352Z,18.98
